createdAt,value
2017-04-25T00:00:54.828Z,0
2017-04-25T00:01:25.314Z,0
2017-04-25T00:02:40.262Z,0
2017-04-25T00:03:25.669Z,0
2017-04-25T00:04:25.697Z,0
2017-04-25T00:05:40.320Z,0
2017-04-25T00:06:25.730Z,0
2017-04-25T00:07:25.746Z,0
2017-04-25T00:08:25.774Z,0
2017-04-25T00:09:25.793Z,0
2017-04-25T00:10:25.511Z,0
2017-04-25T00:11:25.540Z,0
2017-04-25T00:12:25.858Z,0
2017-04-25T00:13:25.880Z,0
2017-04-25T00:14:40.516Z,0
2017-04-25T00:15:25.927Z,0
2017-04-25T00:16:40.559Z,0
2017-04-25T00:17:40.582Z,0
2017-04-25T00:18:25.991Z,0
2017-04-25T00:19:26.018Z,0
2017-04-25T00:20:40.646Z,0
2017-04-25T00:21:26.060Z,0
2017-04-25T00:22:26.074Z,0
2017-04-25T00:23:26.109Z,0
2017-04-25T00:24:26.121Z,0
2017-04-25T00:25:26.175Z,0
2017-04-25T00:26:26.164Z,0
2017-04-25T00:27:26.185Z,0
2017-04-25T00:28:26.206Z,0
2017-04-25T00:29:25.931Z,0
2017-04-25T00:30:26.249Z,0
2017-04-25T00:31:26.267Z,0
2017-04-25T00:32:40.908Z,0
2017-04-25T00:33:26.318Z,0
2017-04-25T00:34:26.335Z,0
2017-04-25T00:35:40.971Z,0
2017-04-25T00:36:40.992Z,0
2017-04-25T00:37:26.397Z,0
2017-04-25T00:38:26.423Z,0
2017-04-25T00:39:26.445Z,0
2017-04-25T00:40:26.459Z,0
2017-04-25T00:41:26.489Z,0
2017-04-25T00:42:26.202Z,0
2017-04-25T00:43:26.227Z,0
2017-04-25T00:44:26.557Z,0
2017-04-25T00:45:26.574Z,0
2017-04-25T00:46:26.589Z,0
2017-04-25T00:47:26.613Z,0
2017-04-25T00:49:26.660Z,0
2017-04-25T00:50:26.675Z,0
2017-04-25T00:51:41.316Z,0
2017-04-25T00:52:41.340Z,0
2017-04-25T00:53:26.749Z,0
2017-04-25T00:55:41.408Z,0
2017-04-25T00:56:26.803Z,0
2017-04-25T00:57:26.837Z,0
2017-04-25T00:58:26.548Z,0
2017-04-25T00:59:26.572Z,0
2017-04-25T01:00:26.898Z,0
2017-04-25T01:01:26.917Z,0
2017-04-25T01:02:26.936Z,0
2017-04-25T01:03:56.192Z,0
2017-04-25T01:04:41.594Z,0
2017-04-25T01:05:27.008Z,0
2017-04-25T01:06:27.023Z,0
2017-04-25T01:07:27.052Z,0
2017-04-25T01:10:27.142Z,0
2017-04-25T01:12:27.148Z,0
2017-04-25T01:13:41.799Z,0
2017-04-25T01:14:27.197Z,0
2017-04-25T01:15:27.216Z,0
2017-04-25T01:16:41.852Z,0
2017-04-25T01:17:27.261Z,0
2017-04-25T01:18:27.282Z,0
2017-04-25T01:19:27.307Z,0
2017-04-25T01:20:41.938Z,0
2017-04-25T01:21:27.046Z,0
2017-04-25T01:22:41.982Z,0
2017-04-25T01:23:42.006Z,0
2017-04-25T01:24:27.413Z,0
2017-04-25T01:25:27.431Z,0
2017-04-25T01:26:27.469Z,0
2017-04-25T01:28:27.495Z,0
2017-04-25T01:29:42.134Z,0
2017-04-25T01:30:27.538Z,0
2017-04-25T01:31:27.559Z,0
2017-04-25T01:32:27.587Z,0
2017-04-25T01:33:27.621Z,0
2017-04-25T01:34:27.632Z,0
2017-04-25T01:35:27.649Z,0
2017-04-25T01:36:27.665Z,0
2017-04-25T01:37:27.686Z,0
2017-04-25T01:38:27.718Z,0
2017-04-25T01:40:42.364Z,0
2017-04-25T01:41:27.803Z,0
2017-04-25T01:43:27.815Z,0
2017-04-25T01:44:27.838Z,0
2017-04-25T01:45:27.854Z,0
2017-04-25T01:46:27.881Z,0
2017-04-25T01:47:27.903Z,0
2017-04-25T01:49:27.950Z,0
2017-04-25T01:50:27.658Z,0
2017-04-25T01:51:27.686Z,0
2017-04-25T01:52:28.006Z,0
2017-04-25T01:53:42.645Z,0
2017-04-25T01:54:28.059Z,0
2017-04-25T01:55:42.694Z,0
2017-04-25T01:56:28.092Z,0
2017-04-25T01:57:27.808Z,0
2017-04-25T01:58:28.140Z,0
2017-04-25T01:59:28.158Z,0
2017-04-25T02:00:27.871Z,0
2017-04-25T02:01:28.204Z,0
2017-04-25T02:02:28.219Z,0
2017-04-25T02:03:42.856Z,0
2017-04-25T02:04:27.959Z,0
2017-04-25T02:05:27.979Z,0
2017-04-25T02:06:28.304Z,0
2017-04-25T02:07:28.323Z,0
2017-04-25T02:08:28.048Z,0
2017-04-25T02:09:28.373Z,0
2017-04-25T02:10:28.388Z,0
2017-04-25T02:12:43.049Z,0
2017-04-25T02:13:28.459Z,0
2017-04-25T02:14:28.477Z,0
2017-04-25T02:15:28.496Z,0
2017-04-25T02:16:28.521Z,0
2017-04-25T02:17:43.157Z,0
2017-04-25T02:19:28.583Z,0
2017-04-25T02:20:28.300Z,0
2017-04-25T02:21:28.652Z,0
2017-04-25T02:22:28.645Z,0
2017-04-25T02:23:28.707Z,0
2017-04-25T02:24:43.309Z,0
2017-04-25T02:25:28.713Z,0
2017-04-25T02:26:43.346Z,0
2017-04-25T02:27:43.069Z,0
2017-04-25T02:28:43.386Z,0
2017-04-25T02:29:28.798Z,0
2017-04-25T02:30:28.812Z,0
2017-04-25T02:31:28.536Z,0
2017-04-25T02:33:28.881Z,0
2017-04-25T02:34:43.524Z,0
2017-04-25T02:35:28.918Z,0
2017-04-25T02:36:28.948Z,0
2017-04-25T02:37:43.578Z,0
2017-04-25T02:38:43.301Z,0
2017-04-25T02:39:29.005Z,0
2017-04-25T02:40:29.029Z,0
2017-04-25T02:41:29.051Z,0
2017-04-25T02:42:29.070Z,0
2017-04-25T02:43:43.708Z,0
2017-04-25T02:44:29.111Z,0
2017-04-25T02:45:28.832Z,0
2017-04-25T02:46:29.153Z,0
2017-04-25T02:47:29.177Z,0
2017-04-25T02:49:29.228Z,0
2017-04-25T02:50:29.234Z,0
2017-04-25T02:51:43.572Z,0
2017-04-25T02:52:43.594Z,0
2017-04-25T02:53:29.302Z,0
2017-04-25T02:54:29.623Z,0
2017-04-25T02:55:29.345Z,0
2017-04-25T02:56:29.371Z,0
2017-04-25T02:57:44.003Z,0
2017-04-25T02:58:44.037Z,0
2017-04-25T02:59:29.429Z,0
2017-04-25T03:00:29.451Z,0
2017-04-25T03:01:29.476Z,0
2017-04-25T03:02:29.191Z,0
2017-04-25T03:03:29.518Z,0
2017-04-25T03:04:44.184Z,0
2017-04-25T03:05:44.172Z,0
2017-04-25T03:06:29.575Z,0
2017-04-25T03:07:44.216Z,0
2017-04-25T03:08:29.620Z,0
2017-04-25T03:09:44.259Z,0
2017-04-25T03:10:29.659Z,0
2017-04-25T03:11:29.680Z,0
2017-04-25T03:12:29.703Z,0
2017-04-25T03:13:44.341Z,0
2017-04-25T03:14:29.748Z,0
2017-04-25T03:15:29.763Z,0
2017-04-25T03:16:44.401Z,0
2017-04-25T03:17:29.808Z,0
2017-04-25T03:18:29.833Z,0
2017-04-25T03:19:29.862Z,0
2017-04-25T03:20:44.494Z,0
2017-04-25T03:21:29.896Z,0
2017-04-25T03:22:29.911Z,0
2017-04-25T03:23:29.943Z,0
2017-04-25T03:24:29.959Z,0
2017-04-25T03:25:29.978Z,0
2017-04-25T03:26:30.031Z,0
2017-04-25T03:27:44.637Z,0
2017-04-25T03:29:44.676Z,0
2017-04-25T03:31:30.103Z,0
2017-04-25T03:32:30.130Z,0
2017-04-25T03:33:30.157Z,0
2017-04-25T03:34:30.170Z,0
2017-04-25T03:35:30.188Z,0
2017-04-25T03:36:30.208Z,0
2017-04-25T03:37:30.264Z,0
2017-04-25T03:38:30.249Z,0
2017-04-25T03:39:30.273Z,0
2017-04-25T03:40:44.906Z,0
2017-04-25T03:41:30.310Z,0
2017-04-25T03:42:30.634Z,0
2017-04-25T03:43:30.364Z,0
2017-04-25T03:44:44.991Z,0
2017-04-25T03:45:30.401Z,0
2017-04-25T03:46:45.031Z,0
2017-04-25T03:47:30.440Z,0
2017-04-25T03:48:30.466Z,0
2017-04-25T03:49:30.483Z,0
2017-04-25T03:51:30.521Z,0
2017-04-25T03:53:30.571Z,0
2017-04-25T03:54:45.202Z,0
2017-04-25T03:55:30.605Z,0
2017-04-25T03:56:45.243Z,0
2017-04-25T03:57:30.345Z,0
2017-04-25T03:58:30.684Z,0
2017-04-25T03:59:30.692Z,0
2017-04-25T04:00:30.711Z,0
2017-04-25T04:01:45.350Z,0
2017-04-25T04:02:45.071Z,0
2017-04-25T04:04:30.808Z,0
2017-04-25T04:05:30.517Z,0
2017-04-25T04:06:45.458Z,0
2017-04-25T04:07:30.556Z,0
2017-04-25T04:08:30.883Z,0
2017-04-25T04:09:45.524Z,0
2017-04-25T04:10:30.921Z,0
2017-04-25T04:11:30.943Z,5
2017-04-25T04:12:30.963Z,5
2017-04-25T04:13:30.681Z,5
2017-04-25T04:15:00.236Z,5
2017-04-25T04:15:45.641Z,5
2017-04-25T04:16:31.046Z,5
2017-04-25T04:17:31.068Z,5
2017-04-25T04:18:45.712Z,5
2017-04-25T04:19:31.109Z,10
2017-04-25T04:20:31.134Z,10
2017-04-25T04:21:31.151Z,10
2017-04-25T04:22:30.868Z,10
2017-04-25T04:24:31.218Z,10
2017-04-25T04:25:31.235Z,10
2017-04-25T04:26:31.255Z,10
2017-04-25T04:27:45.892Z,10
2017-04-25T04:28:45.926Z,10
2017-04-25T04:29:45.935Z,15
2017-04-25T04:31:31.362Z,15
2017-04-25T04:32:45.998Z,20
2017-04-25T04:33:46.021Z,20
2017-04-25T04:34:31.432Z,20
2017-04-25T04:35:31.442Z,20
2017-04-25T04:36:46.078Z,20
2017-04-25T04:37:31.492Z,20
2017-04-25T04:38:31.205Z,20
2017-04-25T04:39:31.528Z,20
2017-04-25T04:40:31.555Z,20
2017-04-25T04:41:46.186Z,20
2017-04-25T04:42:31.592Z,25
2017-04-25T04:43:31.617Z,25
2017-04-25T04:44:31.638Z,25
2017-04-25T04:46:00.887Z,25
2017-04-25T04:46:46.293Z,25
2017-04-25T04:47:31.701Z,25
2017-04-25T04:48:46.336Z,25
2017-04-25T04:49:31.741Z,25
2017-04-25T04:50:31.758Z,30
2017-04-25T04:51:31.782Z,30
2017-04-25T04:52:31.806Z,25
2017-04-25T04:53:31.825Z,25
2017-04-25T04:54:31.847Z,25
2017-04-25T04:55:31.865Z,25
2017-04-25T04:57:31.911Z,25
2017-04-25T04:58:46.545Z,25
2017-04-25T04:59:46.568Z,25
2017-04-25T05:00:31.970Z,20
2017-04-25T05:01:32.013Z,25
2017-04-25T05:02:32.025Z,25
2017-04-25T05:03:32.044Z,25
2017-04-25T05:04:32.069Z,25
2017-04-25T05:05:46.693Z,25
2017-04-25T05:06:32.108Z,25
2017-04-25T05:07:32.117Z,25
2017-04-25T05:09:32.162Z,30
2017-04-25T05:10:32.181Z,35
2017-04-25T05:11:32.203Z,35
2017-04-25T05:12:32.226Z,40
2017-04-25T05:13:32.252Z,40
2017-04-25T05:14:32.267Z,45
2017-04-25T05:15:31.981Z,45
2017-04-25T05:16:32.309Z,45
2017-04-25T05:17:46.947Z,40
2017-04-25T05:18:32.385Z,40
2017-04-25T05:20:01.602Z,45
2017-04-25T05:20:47.008Z,45
2017-04-25T05:21:47.329Z,45
2017-04-25T05:23:32.456Z,50
2017-04-25T05:24:47.113Z,50
2017-04-25T05:25:32.501Z,50
2017-04-25T05:26:32.523Z,50
2017-04-25T05:27:47.167Z,50
2017-04-25T05:28:32.577Z,45
2017-04-25T05:29:32.584Z,45
2017-04-25T05:30:32.610Z,45
2017-04-25T05:31:32.625Z,45
2017-04-25T05:32:47.268Z,45
2017-04-25T05:33:47.289Z,45
2017-04-25T05:34:32.693Z,45
2017-04-25T05:35:47.329Z,45
2017-04-25T05:36:32.732Z,45
2017-04-25T05:40:32.822Z,60
2017-04-25T05:41:32.843Z,65
2017-04-25T05:42:32.867Z,75
2017-04-25T05:43:32.581Z,80
2017-04-25T05:45:32.924Z,100
2017-04-25T05:46:47.563Z,115
2017-04-25T05:47:32.971Z,120
2017-04-25T05:48:47.607Z,130
2017-04-25T05:49:33.012Z,135
2017-04-25T05:50:33.031Z,145
2017-04-25T05:51:33.052Z,155
2017-04-25T05:52:33.076Z,160
2017-04-25T05:53:47.715Z,190
2017-04-25T05:54:33.121Z,190
2017-04-25T05:55:33.142Z,175
2017-04-25T05:56:33.165Z,185
2017-04-25T05:57:33.187Z,175
2017-04-25T05:58:33.211Z,180
2017-04-25T05:59:33.231Z,175
2017-04-25T06:00:33.251Z,185
2017-04-25T06:01:47.889Z,225
2017-04-25T06:02:33.299Z,225
2017-04-25T06:03:33.321Z,240
2017-04-25T06:04:47.958Z,310
2017-04-25T06:05:47.979Z,370
2017-04-25T06:06:33.387Z,390
2017-04-25T06:07:33.418Z,415
2017-04-25T06:08:48.058Z,405
2017-04-25T06:09:33.159Z,295
2017-04-25T06:10:33.477Z,340
2017-04-25T06:11:33.500Z,310
2017-04-25T06:12:33.528Z,310
2017-04-25T06:13:33.555Z,305
2017-04-25T06:14:33.270Z,310
2017-04-25T06:15:33.618Z,250
2017-04-25T06:16:33.619Z,245
2017-04-25T06:17:33.650Z,210
2017-04-25T06:18:33.672Z,195
2017-04-25T06:19:48.310Z,180
2017-04-25T06:20:33.718Z,170
2017-04-25T06:22:02.973Z,160
2017-04-25T06:22:33.764Z,155
2017-04-25T06:23:33.796Z,150
2017-04-25T06:24:33.813Z,150
2017-04-25T06:25:48.452Z,150
2017-04-25T06:26:33.867Z,155
2017-04-25T06:27:33.886Z,155
2017-04-25T06:28:48.522Z,155
2017-04-25T06:29:33.934Z,155
2017-04-25T06:30:33.956Z,150
2017-04-25T06:31:33.978Z,150
2017-04-25T06:32:48.648Z,150
2017-04-25T06:33:33.724Z,145
2017-04-25T06:34:34.050Z,145
2017-04-25T06:35:34.116Z,150
2017-04-25T06:36:48.714Z,155
2017-04-25T06:37:34.133Z,160
2017-04-25T06:38:34.153Z,160
2017-04-25T06:39:34.178Z,175
2017-04-25T06:40:48.812Z,180
2017-04-25T06:41:48.832Z,175
2017-04-25T06:42:34.244Z,175
2017-04-25T06:43:34.266Z,165
2017-04-25T06:44:34.300Z,170
2017-04-25T06:45:48.930Z,170
2017-04-25T06:46:34.343Z,175
2017-04-25T06:47:48.977Z,190
2017-04-25T06:48:49.004Z,195
2017-04-25T06:49:49.030Z,200
2017-04-25T06:51:03.665Z,195
2017-04-25T06:51:49.074Z,195
2017-04-25T06:52:34.491Z,205
2017-04-25T06:53:34.521Z,270
2017-04-25T06:54:34.535Z,345
2017-04-25T06:55:34.242Z,380
2017-04-25T06:56:48.888Z,455
2017-04-25T06:57:34.293Z,520
2017-04-25T06:58:34.016Z,455
2017-04-25T06:59:34.342Z,535
2017-04-25T07:00:34.064Z,475
2017-04-25T07:01:34.396Z,415
2017-04-25T07:02:34.114Z,315
2017-04-25T07:03:34.781Z,305
2017-04-25T07:04:34.769Z,245
2017-04-25T07:05:49.406Z,205
2017-04-25T07:06:34.814Z,195
2017-04-25T07:07:34.841Z,170
2017-04-25T07:08:34.868Z,125
2017-04-25T07:09:49.508Z,100
2017-04-25T07:10:34.912Z,100
2017-04-25T07:11:34.939Z,85
2017-04-25T07:12:49.577Z,75
2017-04-25T07:13:34.990Z,70
2017-04-25T07:14:35.019Z,55
2017-04-25T07:15:35.033Z,50
2017-04-25T07:16:34.454Z,50
2017-04-25T07:17:35.086Z,50
2017-04-25T07:18:34.810Z,45
2017-04-25T07:19:34.835Z,45
2017-04-25T07:20:35.156Z,50
2017-04-25T07:21:49.803Z,40
2017-04-25T07:22:35.218Z,35
2017-04-25T07:23:35.264Z,35
2017-04-25T07:24:35.258Z,35
2017-04-25T07:25:49.893Z,35
2017-04-25T07:26:35.302Z,30
2017-04-25T07:27:35.324Z,30
2017-04-25T07:28:49.961Z,25
2017-04-25T07:29:35.365Z,25
2017-04-25T07:30:35.391Z,30
2017-04-25T07:31:35.413Z,25
2017-04-25T07:32:35.438Z,25
2017-04-25T07:33:35.463Z,30
2017-04-25T07:34:35.481Z,25
2017-04-25T07:35:35.510Z,25
2017-04-25T07:36:35.527Z,25
2017-04-25T07:37:35.552Z,25
2017-04-25T07:38:35.573Z,25
2017-04-25T07:39:35.595Z,30
2017-04-25T07:40:49.933Z,35
2017-04-25T07:41:35.640Z,35
2017-04-25T07:42:49.975Z,40
2017-04-25T07:43:50.302Z,55
2017-04-25T07:44:35.709Z,55
2017-04-25T07:45:35.729Z,60
2017-04-25T07:46:35.754Z,60
2017-04-25T07:48:35.799Z,60
2017-04-25T07:49:35.828Z,55
2017-04-25T07:50:35.536Z,55
2017-04-25T07:51:35.884Z,50
2017-04-25T07:52:35.581Z,50
2017-04-25T07:53:35.918Z,50
2017-04-25T07:54:35.929Z,50
2017-04-25T07:55:50.572Z,50
2017-04-25T07:56:50.589Z,50
2017-04-25T07:57:35.702Z,50
2017-04-25T07:58:50.631Z,55
2017-04-25T07:59:35.733Z,55
2017-04-25T08:00:36.074Z,55
2017-04-25T08:01:36.080Z,55
2017-04-25T08:02:36.107Z,55
2017-04-25T08:03:36.131Z,55
2017-04-25T08:04:36.148Z,50
2017-04-25T08:05:36.173Z,45
2017-04-25T08:06:36.186Z,50
2017-04-25T08:07:50.828Z,50
2017-04-25T08:08:50.853Z,50
2017-04-25T08:09:36.266Z,55
2017-04-25T08:10:36.272Z,55
2017-04-25T08:11:50.913Z,55
2017-04-25T08:12:50.936Z,55
2017-04-25T08:13:36.339Z,55
2017-04-25T08:14:36.362Z,55
2017-04-25T08:16:36.412Z,70
2017-04-25T08:17:36.429Z,80
2017-04-25T08:18:36.447Z,90
2017-04-25T08:19:51.088Z,100
2017-04-25T08:20:36.515Z,100
2017-04-25T08:22:51.157Z,100
2017-04-25T08:23:36.554Z,100
2017-04-25T08:24:36.311Z,100
2017-04-25T08:25:36.603Z,105
2017-04-25T08:26:36.618Z,105
2017-04-25T08:27:36.645Z,110
2017-04-25T08:28:36.663Z,100
2017-04-25T08:29:50.995Z,105
2017-04-25T08:30:36.703Z,110
2017-04-25T08:32:36.769Z,115
2017-04-25T08:33:36.772Z,115
2017-04-25T08:34:36.794Z,110
2017-04-25T08:35:36.821Z,110
2017-04-25T08:36:51.459Z,100
2017-04-25T08:37:36.554Z,100
2017-04-25T08:38:36.875Z,95
2017-04-25T08:39:36.897Z,90
2017-04-25T08:40:36.924Z,80
2017-04-25T08:41:51.556Z,65
2017-04-25T08:42:36.966Z,65
2017-04-25T08:43:36.984Z,65
2017-04-25T08:44:37.006Z,55
2017-04-25T08:45:37.030Z,50
2017-04-25T08:46:37.047Z,45
2017-04-25T08:47:51.695Z,50
2017-04-25T08:48:37.099Z,50
2017-04-25T08:49:37.117Z,50
2017-04-25T08:50:37.135Z,45
2017-04-25T08:51:37.156Z,45
2017-04-25T08:52:37.181Z,50
2017-04-25T08:53:37.199Z,50
2017-04-25T08:54:37.222Z,45
2017-04-25T08:55:51.859Z,45
2017-04-25T08:56:37.268Z,50
2017-04-25T08:57:51.908Z,50
2017-04-25T08:58:37.310Z,50
2017-04-25T08:59:37.327Z,50
2017-04-25T09:00:37.354Z,55
2017-04-25T09:01:37.373Z,60
2017-04-25T09:02:37.398Z,70
2017-04-25T09:03:52.043Z,65
2017-04-25T09:04:37.439Z,60
2017-04-25T09:05:37.158Z,60
2017-04-25T09:06:37.479Z,65
2017-04-25T09:07:37.500Z,60
2017-04-25T09:08:37.522Z,60
2017-04-25T09:09:36.935Z,60
2017-04-25T09:10:37.564Z,70
2017-04-25T09:11:37.588Z,85
2017-04-25T09:12:52.222Z,95
2017-04-25T09:13:52.242Z,105
2017-04-25T09:14:37.650Z,115
2017-04-25T09:16:06.902Z,120
2017-04-25T09:16:37.705Z,120
2017-04-25T09:17:52.330Z,115
2017-04-25T09:18:52.051Z,140
2017-04-25T09:19:37.456Z,145
2017-04-25T09:20:37.785Z,145
2017-04-25T09:21:37.807Z,140
2017-04-25T09:22:37.825Z,130
2017-04-25T09:23:37.850Z,125
2017-04-25T09:24:37.865Z,125
2017-04-25T09:25:37.885Z,135
2017-04-25T09:26:37.906Z,140
2017-04-25T09:27:37.629Z,145
2017-04-25T09:28:37.659Z,145
2017-04-25T09:29:37.976Z,135
2017-04-25T09:30:37.994Z,130
2017-04-25T09:31:37.712Z,125
2017-04-25T09:32:37.736Z,115
2017-04-25T09:33:38.058Z,110
2017-04-25T09:34:38.078Z,110
2017-04-25T09:35:38.113Z,120
2017-04-25T09:36:38.123Z,105
2017-04-25T09:37:38.152Z,100
2017-04-25T09:38:38.172Z,100
2017-04-25T09:40:38.216Z,65
2017-04-25T09:41:52.850Z,65
2017-04-25T09:42:38.256Z,70
2017-04-25T09:43:38.279Z,75
2017-04-25T09:44:38.300Z,85
2017-04-25T09:45:38.320Z,85
2017-04-25T09:46:38.342Z,85
2017-04-25T09:47:52.676Z,105
2017-04-25T09:48:38.387Z,115
2017-04-25T09:49:53.023Z,110
2017-04-25T09:51:38.452Z,95
2017-04-25T09:52:38.487Z,100
2017-04-25T09:53:38.505Z,115
2017-04-25T09:54:38.564Z,135
2017-04-25T09:55:38.548Z,150
2017-04-25T09:56:38.587Z,165
2017-04-25T09:57:53.201Z,155
2017-04-25T09:58:38.601Z,160
2017-04-25T10:00:07.859Z,155
2017-04-25T10:00:38.641Z,165
2017-04-25T10:01:38.667Z,175
2017-04-25T10:02:38.691Z,170
2017-04-25T10:03:38.722Z,165
2017-04-25T10:04:38.441Z,175
2017-04-25T10:05:38.752Z,185
2017-04-25T10:07:38.804Z,185
2017-04-25T10:08:38.824Z,200
2017-04-25T10:09:38.840Z,220
2017-04-25T10:12:38.915Z,265
2017-04-25T10:13:38.934Z,250
2017-04-25T10:14:53.570Z,250
2017-04-25T10:15:38.974Z,280
2017-04-25T10:16:53.613Z,305
2017-04-25T10:17:53.637Z,295
2017-04-25T10:20:39.089Z,280
2017-04-25T10:21:39.108Z,300
2017-04-25T10:22:53.442Z,270
2017-04-25T10:23:38.852Z,245
2017-04-25T10:24:39.177Z,240
2017-04-25T10:25:39.204Z,240
2017-04-25T10:26:39.220Z,240
2017-04-25T10:27:39.246Z,235
2017-04-25T10:28:39.269Z,245
2017-04-25T10:29:39.289Z,245
2017-04-25T10:30:39.315Z,240
2017-04-25T10:31:39.338Z,250
2017-04-25T10:32:39.363Z,265
2017-04-25T10:33:53.999Z,260
2017-04-25T10:34:39.406Z,255
2017-04-25T10:35:39.425Z,245
2017-04-25T10:36:39.148Z,240
2017-04-25T10:37:39.175Z,245
2017-04-25T10:38:54.116Z,240
2017-04-25T10:40:39.549Z,220
2017-04-25T10:41:39.263Z,205
2017-04-25T10:42:39.592Z,190
2017-04-25T10:43:54.234Z,165
2017-04-25T10:45:39.664Z,145
2017-04-25T10:46:39.379Z,145
2017-04-25T10:47:54.324Z,125
2017-04-25T10:48:39.427Z,125
2017-04-25T10:49:54.064Z,125
2017-04-25T10:50:54.087Z,120
2017-04-25T10:51:54.109Z,125
2017-04-25T10:52:39.825Z,125
2017-04-25T10:53:54.465Z,105
2017-04-25T10:54:39.869Z,100
2017-04-25T10:55:39.887Z,100
2017-04-25T10:56:39.923Z,95
2017-04-25T10:57:39.938Z,105
2017-04-25T10:58:39.659Z,140
2017-04-25T10:59:39.981Z,160
2017-04-25T11:00:39.708Z,180
2017-04-25T11:01:40.028Z,185
2017-04-25T11:02:54.672Z,195
2017-04-25T11:03:54.688Z,200
2017-04-25T11:04:40.095Z,210
2017-04-25T11:05:40.115Z,225
2017-04-25T11:06:40.147Z,240
2017-04-25T11:07:40.167Z,230
2017-04-25T11:08:54.805Z,205
2017-04-25T11:09:40.209Z,195
2017-04-25T11:10:40.234Z,175
2017-04-25T11:11:40.259Z,175
2017-04-25T11:12:40.288Z,180
2017-04-25T11:13:40.296Z,195
2017-04-25T11:14:40.321Z,185
2017-04-25T11:15:40.342Z,170
2017-04-25T11:16:54.985Z,170
2017-04-25T11:17:40.391Z,185
2017-04-25T11:18:40.417Z,215
2017-04-25T11:19:40.438Z,225
2017-04-25T11:20:55.077Z,200
2017-04-25T11:21:55.099Z,185
2017-04-25T11:23:09.739Z,195
2017-04-25T11:23:40.537Z,195
2017-04-25T11:24:55.168Z,220
2017-04-25T11:25:55.190Z,220
2017-04-25T11:26:40.598Z,220
2017-04-25T11:27:40.623Z,230
2017-04-25T11:28:40.647Z,205
2017-04-25T11:29:40.666Z,220
2017-04-25T11:31:40.714Z,225
2017-04-25T11:32:40.737Z,215
2017-04-25T11:33:40.764Z,200
2017-04-25T11:34:40.781Z,190
2017-04-25T11:35:40.499Z,185
2017-04-25T11:36:40.829Z,175
2017-04-25T11:38:10.085Z,180
2017-04-25T11:38:55.509Z,180
2017-04-25T11:40:10.129Z,185
2017-04-25T11:40:40.918Z,190
2017-04-25T11:41:55.260Z,190
2017-04-25T11:42:40.969Z,190
2017-04-25T11:43:40.992Z,180
2017-04-25T11:44:41.014Z,175
2017-04-25T11:45:40.733Z,170
2017-04-25T11:47:41.090Z,165
2017-04-25T11:48:55.725Z,160
2017-04-25T11:49:40.832Z,150
2017-04-25T11:50:41.150Z,125
2017-04-25T11:51:41.184Z,105
2017-04-25T11:52:41.213Z,90
2017-04-25T11:53:41.238Z,85
2017-04-25T11:54:41.248Z,75
2017-04-25T11:55:41.325Z,75
2017-04-25T11:56:41.304Z,70
2017-04-25T11:57:55.936Z,70
2017-04-25T11:58:41.036Z,70
2017-04-25T11:59:41.366Z,80
2017-04-25T12:01:41.405Z,90
2017-04-25T12:02:41.439Z,75
2017-04-25T12:03:41.456Z,80
2017-04-25T12:04:41.472Z,85
2017-04-25T12:05:41.498Z,85
2017-04-25T12:06:41.518Z,90
2017-04-25T12:07:41.546Z,105
2017-04-25T12:08:41.570Z,115
2017-04-25T12:09:41.609Z,100
2017-04-25T12:10:41.613Z,80
2017-04-25T12:11:41.630Z,70
2017-04-25T12:12:41.659Z,65
2017-04-25T12:13:56.299Z,60
2017-04-25T12:14:41.699Z,60
2017-04-25T12:15:41.427Z,55
2017-04-25T12:16:41.438Z,50
2017-04-25T12:17:41.769Z,50
2017-04-25T12:18:41.790Z,50
2017-04-25T12:19:41.512Z,45
2017-04-25T12:20:41.833Z,45
2017-04-25T12:21:41.852Z,50
2017-04-25T12:22:41.883Z,60
2017-04-25T12:23:41.914Z,75
2017-04-25T12:25:11.157Z,85
2017-04-25T12:26:10.873Z,90
2017-04-25T12:26:41.967Z,90
2017-04-25T12:27:41.995Z,95
2017-04-25T12:28:56.327Z,105
2017-04-25T12:29:42.035Z,120
2017-04-25T12:30:42.056Z,130
2017-04-25T12:31:42.077Z,140
2017-04-25T12:32:42.105Z,140
2017-04-25T12:33:42.130Z,140
2017-04-25T12:34:56.765Z,130
2017-04-25T12:35:42.170Z,125
2017-04-25T12:36:42.189Z,125
2017-04-25T12:37:41.922Z,130
2017-04-25T12:38:42.242Z,175
2017-04-25T12:39:42.259Z,230
2017-04-25T12:40:56.894Z,210
2017-04-25T12:41:42.298Z,235
2017-04-25T12:42:42.333Z,230
2017-04-25T12:43:42.353Z,225
2017-04-25T12:44:42.373Z,210
2017-04-25T12:45:42.388Z,195
2017-04-25T12:46:42.417Z,180
2017-04-25T12:47:42.439Z,180
2017-04-25T12:48:42.459Z,225
2017-04-25T12:49:42.483Z,230
2017-04-25T12:50:42.506Z,225
2017-04-25T12:51:42.220Z,225
2017-04-25T12:52:57.166Z,230
2017-04-25T12:53:42.574Z,235
2017-04-25T12:54:42.593Z,225
2017-04-25T12:55:42.618Z,220
2017-04-25T12:56:42.640Z,230
2017-04-25T12:57:42.665Z,250
2017-04-25T12:58:42.726Z,245
2017-04-25T12:59:57.021Z,230
2017-04-25T13:00:57.350Z,220
2017-04-25T13:01:42.755Z,190
2017-04-25T13:02:42.781Z,200
2017-04-25T13:03:42.802Z,200
2017-04-25T13:04:57.444Z,190
2017-04-25T13:06:42.873Z,200
2017-04-25T13:07:42.892Z,200
2017-04-25T13:08:57.539Z,160
2017-04-25T13:09:57.560Z,150
2017-04-25T13:10:57.577Z,160
2017-04-25T13:11:57.299Z,200
2017-04-25T13:12:43.009Z,200
2017-04-25T13:13:43.045Z,200
2017-04-25T13:14:43.052Z,200
2017-04-25T13:15:43.086Z,205
2017-04-25T13:17:43.128Z,150
2017-04-25T13:18:43.146Z,200
2017-04-25T13:19:43.172Z,200
2017-04-25T13:22:57.553Z,155
2017-04-25T13:23:43.261Z,135
2017-04-25T13:24:43.297Z,140
2017-04-25T13:25:43.303Z,155
2017-04-25T13:26:57.958Z,205
2017-04-25T13:27:43.615Z,135
2017-04-25T13:28:58.038Z,125
2017-04-25T13:29:43.399Z,120
2017-04-25T13:30:43.422Z,120
2017-04-25T13:31:42.838Z,125
2017-04-25T13:32:58.288Z,135
2017-04-25T13:33:58.114Z,170
2017-04-25T13:34:43.218Z,140
2017-04-25T13:35:43.546Z,145
2017-04-25T13:36:43.558Z,145
2017-04-25T13:37:43.589Z,145
2017-04-25T13:38:43.321Z,145
2017-04-25T13:39:43.735Z,145
2017-04-25T13:41:43.372Z,140
2017-04-25T13:42:42.493Z,130
2017-04-25T13:43:43.725Z,120
2017-04-25T13:44:43.739Z,115
2017-04-25T13:45:58.392Z,105
2017-04-25T13:46:43.487Z,105
2017-04-25T13:47:43.511Z,95
2017-04-25T13:48:58.658Z,90
2017-04-25T13:50:43.879Z,90
2017-04-25T13:52:43.352Z,90
2017-04-25T13:54:13.189Z,100
2017-04-25T13:54:43.680Z,105
2017-04-25T13:56:58.633Z,125
2017-04-25T13:57:44.044Z,145
2017-04-25T13:58:44.066Z,140
2017-04-25T13:59:44.088Z,165
2017-04-25T14:00:44.113Z,225
2017-04-25T14:01:42.914Z,155
2017-04-25T14:02:43.003Z,150
2017-04-25T14:03:57.883Z,140
2017-04-25T14:04:44.200Z,140
2017-04-25T14:05:44.224Z,205
2017-04-25T14:06:44.286Z,210
2017-04-25T14:08:44.304Z,205
2017-04-25T14:09:44.011Z,170
2017-04-25T14:10:44.337Z,175
2017-04-25T14:11:43.453Z,200
2017-04-25T14:12:43.474Z,200
2017-04-25T14:13:58.422Z,200
2017-04-25T14:14:43.519Z,200
2017-04-25T14:15:59.069Z,145
2017-04-25T14:16:43.873Z,185
2017-04-25T14:17:44.197Z,120
2017-04-25T14:18:44.734Z,120
2017-04-25T14:20:44.568Z,125
2017-04-25T14:21:43.681Z,125
2017-04-25T14:23:43.428Z,130
2017-04-25T14:24:43.756Z,125
2017-04-25T14:25:43.466Z,125
2017-04-25T14:26:58.411Z,120
2017-04-25T14:27:44.735Z,120
2017-04-25T14:28:44.751Z,115
2017-04-25T14:29:44.779Z,110
2017-04-25T14:30:59.417Z,105
2017-04-25T14:31:43.906Z,105
2017-04-25T14:33:43.956Z,110
2017-04-25T14:34:58.592Z,110
2017-04-25T14:35:58.918Z,110
2017-04-25T14:37:44.046Z,115
2017-04-25T14:38:45.023Z,120
2017-04-25T14:39:45.003Z,125
2017-04-25T14:40:44.730Z,130
2017-04-25T14:42:45.102Z,140
2017-04-25T14:43:45.097Z,140
2017-04-25T14:44:45.120Z,145
2017-04-25T14:45:59.760Z,145
2017-04-25T14:46:44.856Z,140
2017-04-25T14:47:45.188Z,140
2017-04-25T14:48:45.208Z,140
2017-04-25T14:49:45.232Z,150
2017-04-25T14:50:45.254Z,160
2017-04-25T14:51:59.894Z,170
2017-04-25T14:52:45.313Z,200
2017-04-25T14:53:59.935Z,195
2017-04-25T14:54:45.350Z,200
2017-04-25T14:55:45.368Z,195
2017-04-25T14:56:45.391Z,205
2017-04-25T14:57:45.447Z,200
2017-04-25T14:59:00.056Z,185
2017-04-25T14:59:45.464Z,185
2017-04-25T15:00:45.479Z,200
2017-04-25T15:01:45.720Z,205
2017-04-25T15:02:45.530Z,205
2017-04-25T15:03:45.557Z,205
2017-04-25T15:04:45.277Z,200
2017-04-25T15:06:00.215Z,210
2017-04-25T15:06:45.318Z,150
2017-04-25T15:08:00.264Z,190